sensor_id;sensor_type;location;lat;lon;timestamp;pressure;altitude;pressure_sealevel;temperature;humidity
60307;BME280;46155;52.364;6.580;2023-02-11T04:00:41;102930.56;;;6.10;100.00
60307;BME280;46155;52.364;6.580;2023-02-11T04:03:08;102934.69;;;6.08;100.00
60307;BME280;46155;52.364;6.580;2023-02-11T04:05:34;102935.78;;;6.10;100.00
60307;BME280;46155;52.364;6.580;2023-02-11T04:07:59;102939.13;;;6.09;100.00
60307;BME280;46155;52.364;6.580;2023-02-11T04:10:24;102926.09;;;6.09;100.00
60307;BME280;46155;52.364;6.580;2023-02-11T04:12:50;102927.78;;;6.09;100.00
60307;BME280;46155;52.364;6.580;2023-02-11T04:15:15;102924.44;;;6.10;100.00
60307;BME280;46155;52.364;6.580;2023-02-11T04:17:41;102919.03;;;6.08;100.00
60307;BME280;46155;52.364;6.580;2023-02-11T04:20:07;102918.25;;;6.09;100.00
60307;BME280;46155;52.364;6.580;2023-02-11T04:22:33;102922.72;;;6.10;100.00
60307;BME280;46155;52.364;6.580;2023-02-11T04:24:58;102922.91;;;6.12;100.00
60307;BME280;46155;52.364;6.580;2023-02-11T04:27:23;102931.63;;;6.12;100.00
60307;BME280;46155;52.364;6.580;2023-02-11T04:29:49;102920.88;;;6.09;100.00
60307;BME280;46155;52.364;6.580;2023-02-11T04:32:14;102924.44;;;6.10;100.00
60307;BME280;46155;52.364;6.580;2023-02-11T04:34:39;102918.59;;;6.12;100.00
60307;BME280;46155;52.364;6.580;2023-02-11T04:37:05;102919.72;;;6.14;100.00
60307;BME280;46155;52.364;6.580;2023-02-11T04:39:31;102922.31;;;6.14;100.00
60307;BME280;46155;52.364;6.580;2023-02-11T04:41:56;102921.22;;;6.12;100.00
60307;BME280;46155;52.364;6.580;2023-02-11T04:44:21;102918.59;;;6.12;100.00
60307;BME280;46155;52.364;6.580;2023-02-11T04:46:47;102927.88;;;6.17;100.00
60307;BME280;46155;52.364;6.580;2023-02-11T04:49:13;102926.25;;;6.11;100.00
60307;BME280;46155;52.364;6.580;2023-02-11T04:51:39;102922.00;;;6.11;100.00
60307;BME280;46155;52.364;6.580;2023-02-11T04:54:05;102919.63;;;6.06;100.00
60307;BME280;46155;52.364;6.580;2023-02-11T04:56:30;102916.00;;;6.12;100.00
60307;BME280;46155;52.364;6.580;2023-02-11T04:58:56;102921.22;;;6.12;100.00
60307;BME280;46155;52.364;6.580;2023-02-11T05:01:21;102927.53;;;6.14;100.00
60307;BME280;46155;52.364;6.580;2023-02-11T05:03:46;102932.75;;;6.14;100.00
60307;BME280;46155;52.364;6.580;2023-02-11T05:06:12;102924.19;;;6.15;100.00
60307;BME280;46155;52.364;6.580;2023-02-11T05:08:37;102927.53;;;6.14;100.00
60307;BME280;46155;52.364;6.580;2023-02-11T05:11:03;102928.88;;;6.11;100.00
60307;BME280;46155;52.364;6.580;2023-02-11T05:13:29;102927.19;;;6.11;100.00
60307;BME280;46155;52.364;6.580;2023-02-11T05:15:55;102934.25;;;6.12;100.00
60307;BME280;46155;52.364;6.580;2023-02-11T05:18:20;102941.31;;;6.13;100.00
60307;BME280;46155;52.364;6.580;2023-02-11T05:20:46;102940.75;;;6.16;100.00
60307;BME280;46155;52.364;6.580;2023-02-11T05:23:11;102940.00;;;6.17;100.00
60307;BME280;46155;52.364;6.580;2023-02-11T05:25:37;102943.94;;;6.13;100.00
60307;BME280;46155;52.364;6.580;2023-02-11T05:28:03;102939.47;;;6.12;100.00
60307;BME280;46155;52.364;6.580;2023-02-11T05:30:29;102941.31;;;6.13;100.00
60307;BME280;46155;52.364;6.580;2023-02-11T05:32:54;102936.84;;;6.12;100.00
60307;BME280;46155;52.364;6.580;2023-02-11T05:35:20;102941.91;;;6.11;100.00
60307;BME280;46155;52.364;6.580;2023-02-11T05:37:45;102940.25;;;6.11;100.00
60307;BME280;46155;52.364;6.580;2023-02-11T05:40:10;102940.25;;;6.11;100.00
60307;BME280;46155;52.364;6.580;2023-02-11T05:42:36;102927.94;;;6.10;100.00
60307;BME280;46155;52.364;6.580;2023-02-11T05:45:01;102923.47;;;6.09;100.00
60307;BME280;46155;52.364;6.580;2023-02-11T05:47:27;102924.44;;;6.10;100.00
60307;BME280;46155;52.364;6.580;2023-02-11T05:49:52;102926.09;;;6.09;100.00
60307;BME280;46155;52.364;6.580;2023-02-11T05:52:19;102932.59;;;6.13;100.00
60307;BME280;46155;52.364;6.580;2023-02-11T05:54:44;102931.84;;;6.14;100.00
60307;BME280;46155;52.364;6.580;2023-02-11T05:57:10;102934.25;;;6.12;100.00
60307;BME280;46155;52.364;6.580;2023-02-11T05:59:35;102934.25;;;6.12;100.00
60307;BME280;46155;52.364;6.580;2023-02-11T06:02:01;102934.25;;;6.12;100.00
60307;BME280;46155;52.364;6.580;2023-02-11T06:04:26;102932.00;;;6.15;100.00
60307;BME280;46155;52.364;6.580;2023-02-11T06:06:51;102932.19;;;6.17;100.00
60307;BME280;46155;52.364;6.580;2023-02-11T06:09:17;102937.06;;;6.14;100.00
60307;BME280;46155;52.364;6.580;2023-02-11T06:11:42;102935.03;;;6.11;100.00
60307;BME280;46155;52.364;6.580;2023-02-11T06:14:07;102942.84;;;6.11;100.00
60307;BME280;46155;52.364;6.580;2023-02-11T06:16:34;102930.91;;;6.13;100.00
60307;BME280;46155;52.364;6.580;2023-02-11T06:18:59;102937.81;;;6.13;100.00
60307;BME280;46155;52.364;6.580;2023-02-11T06:21:24;102943.19;;;6.14;100.00
60307;BME280;46155;52.364;6.580;2023-02-11T06:23:50;102948.41;;;6.14;100.00
60307;BME280;46155;52.364;6.580;2023-02-11T06:26:18;102949.66;;;6.18;100.00
60307;BME280;46155;52.364;6.580;2023-02-11T06:28:44;102936.81;;;6.19;100.00
60307;BME280;46155;52.364;6.580;2023-02-11T06:31:10;102935.13;;;6.20;100.00
60307;BME280;46155;52.364;6.580;2023-02-11T06:33:36;102934.38;;;6.21;100.00
60307;BME280;46155;52.364;6.580;2023-02-11T06:36:02;102933.09;;;6.17;100.00
60307;BME280;46155;52.364;6.580;2023-02-11T06:38:27;102935.88;;;6.19;100.00
60307;BME280;46155;52.364;6.580;2023-02-11T06:40:53;102942.03;;;6.19;100.00
60307;BME280;46155;52.364;6.580;2023-02-11T06:43:18;102942.03;;;6.19;100.00
60307;BME280;46155;52.364;6.580;2023-02-11T06:45:44;102945.41;;;6.18;100.00
60307;BME280;46155;52.364;6.580;2023-02-11T06:48:09;102939.78;;;6.23;100.00
60307;BME280;46155;52.364;6.580;2023-02-11T06:50:34;102937.16;;;6.23;100.00
60307;BME280;46155;52.364;6.580;2023-02-11T06:53:00;102936.38;;;6.24;100.00
60307;BME280;46155;52.364;6.580;2023-02-11T06:55:26;102941.59;;;6.24;100.00
60307;BME280;46155;52.364;6.580;2023-02-11T06:57:51;102936.59;;;6.25;100.00
60307;BME280;46155;52.364;6.580;2023-02-11T07:00:17;102936.38;;;6.24;100.00
60307;BME280;46155;52.364;6.580;2023-02-11T07:02:42;102925.78;;;6.22;100.00
60307;BME280;46155;52.364;6.580;2023-02-11T07:05:08;102936.59;;;6.25;100.00
60307;BME280;46155;52.364;6.580;2023-02-11T07:07:34;102925.22;;;6.25;100.00
60307;BME280;46155;52.364;6.580;2023-02-11T07:10:00;102937.84;;;6.29;100.00
60307;BME280;46155;52.364;6.580;2023-02-11T07:12:27;102925.22;;;6.25;100.00
60307;BME280;46155;52.364;6.580;2023-02-11T07:14:52;102934.16;;;6.27;100.00
60307;BME280;46155;52.364;6.580;2023-02-11T07:17:17;102936.16;;;6.29;100.00
60307;BME280;46155;52.364;6.580;2023-02-11T07:19:42;102930.75;;;6.28;100.00
60307;BME280;46155;52.364;6.580;2023-02-11T07:22:08;102937.59;;;6.34;100.00
60307;BME280;46155;52.364;6.580;2023-02-11T07:24:33;102938.50;;;6.35;100.00
60307;BME280;46155;52.364;6.580;2023-02-11T07:26:58;102943.00;;;6.36;100.00
60307;BME280;46155;52.364;6.580;2023-02-11T07:29:24;102945.59;;;6.36;100.00
60307;BME280;46155;52.364;6.580;2023-02-11T07:31:49;102949.31;;;6.38;100.00
60307;BME280;46155;52.364;6.580;2023-02-11T07:34:14;102942.25;;;6.37;100.00
60307;BME280;46155;52.364;6.580;2023-02-11T07:36:40;102950.06;;;6.37;100.00
60307;BME280;46155;52.364;6.580;2023-02-11T07:39:07;102952.09;;;6.40;100.00
60307;BME280;46155;52.364;6.580;2023-02-11T07:41:33;102955.63;;;6.40;100.00
60307;BME280;46155;52.364;6.580;2023-02-11T07:44:01;102946.31;;;6.42;100.00
60307;BME280;46155;52.364;6.580;2023-02-11T07:46:27;102947.56;;;6.46;100.00
60307;BME280;46155;52.364;6.580;2023-02-11T07:48:53;102957.81;;;6.44;100.00
60307;BME280;46155;52.364;6.580;2023-02-11T07:51:21;102955.22;;;6.44;100.00
60307;BME280;46155;52.364;6.580;2023-02-11T07:53:47;102966.69;;;6.53;100.00
60307;BME280;46155;52.364;6.580;2023-02-11T07:56:14;102967.38;;;6.60;100.00
60307;BME280;46155;52.364;6.580;2023-02-11T07:58:40;102959.03;;;6.55;100.00
60307;BME280;46155;52.364;6.580;2023-02-11T08:01:09;102962.56;;;6.55;100.00
60307;BME280;46155;52.364;6.580;2023-02-11T08:03:35;102964.41;;;6.57;100.00
60307;BME280;46155;52.364;6.580;2023-02-11T08:06:05;102957.50;;;6.57;100.00
60307;BME280;46155;52.364;6.580;2023-02-11T08:08:31;102971.06;;;6.62;100.00
60307;BME280;46155;52.364;6.580;2023-02-11T08:10:56;102966.19;;;6.65;100.00
60307;BME280;46155;52.364;6.580;2023-02-11T08:13:22;102965.25;;;6.64;100.00
60307;BME280;46155;52.364;6.580;2023-02-11T08:15:47;102964.69;;;6.67;100.00
60307;BME280;46155;52.364;6.580;2023-02-11T08:18:13;102970.56;;;6.73;100.00
60307;BME280;46155;52.364;6.580;2023-02-11T08:20:38;102967.78;;;6.71;100.00
60307;BME280;46155;52.364;6.580;2023-02-11T08:23:06;102969.06;;;6.75;100.00
60307;BME280;46155;52.364;6.580;2023-02-11T08:25:32;102964.78;;;6.76;100.00
60307;BME280;46155;52.364;6.580;2023-02-11T08:27:57;102974.63;;;6.78;100.00
60307;BME280;46155;52.364;6.580;2023-02-11T08:30:23;102974.97;;;6.81;100.00
60307;BME280;46155;52.364;6.580;2023-02-11T08:32:49;102979.28;;;6.81;100.00
60307;BME280;46155;52.364;6.580;2023-02-11T08:35:14;102979.78;;;6.85;100.00
60307;BME280;46155;52.364;6.580;2023-02-11T08:37:40;102984.25;;;6.86;100.00
60307;BME280;46155;52.364;6.580;2023-02-11T08:40:05;102987.59;;;6.85;100.00
60307;BME280;46155;52.364;6.580;2023-02-11T08:42:30;102996.88;;;6.91;100.00
60307;BME280;46155;52.364;6.580;2023-02-11T08:44:56;102989.97;;;6.91;100.00
60307;BME280;46155;52.364;6.580;2023-02-11T08:47:21;102990.88;;;6.92;100.00
60307;BME280;46155;52.364;6.580;2023-02-11T08:49:46;102993.06;;;6.96;100.00
60307;BME280;46155;52.364;6.580;2023-02-11T08:52:12;102992.31;;;6.97;100.00
60307;BME280;46155;52.364;6.580;2023-02-11T08:54:37;102981.13;;;6.98;100.00
60307;BME280;46155;52.364;6.580;2023-02-11T08:57:03;102995.50;;;7.10;100.00
60307;BME280;46155;52.364;6.580;2023-02-11T08:59:29;102997.38;;;7.11;100.00
60307;BME280;46155;52.364;6.580;2023-02-11T09:01:54;103002.94;;;7.14;100.00
60307;BME280;46155;52.364;6.580;2023-02-11T09:04:21;103002.59;;;7.11;100.00
60307;BME280;46155;52.364;6.580;2023-02-11T09:06:46;102999.25;;;7.12;100.00
60307;BME280;46155;52.364;6.580;2023-02-11T09:09:13;103010.94;;;7.16;100.00
60307;BME280;46155;52.364;6.580;2023-02-11T09:11:39;103013.91;;;7.19;100.00
60307;BME280;46155;52.364;6.580;2023-02-11T09:14:05;103018.19;;;7.18;100.00
60307;BME280;46155;52.364;6.580;2023-02-11T09:16:33;103017.44;;;7.19;100.00
60307;BME280;46155;52.364;6.580;2023-02-11T09:19:00;103017.78;;;7.22;100.00
60307;BME280;46155;52.364;6.580;2023-02-11T09:21:27;103019.97;;;7.27;100.00
60307;BME280;46155;52.364;6.580;2023-02-11T09:23:52;103026.47;;;7.30;100.00
60307;BME280;46155;52.364;6.580;2023-02-11T09:26:26;103035.72;;;7.35;100.00
60307;BME280;46155;52.364;6.580;2023-02-11T09:28:52;103023.59;;;7.36;100.00
60307;BME280;46155;52.364;6.580;2023-02-11T09:31:20;103026.88;;;7.42;100.00
60307;BME280;46155;52.364;6.580;2023-02-11T09:33:49;103035.53;;;7.50;100.00
60307;BME280;46155;52.364;6.580;2023-02-11T09:36:17;103035.91;;;7.53;100.00
60307;BME280;46155;52.364;6.580;2023-02-11T09:38:43;103050.03;;;7.55;100.00
60307;BME280;46155;52.364;6.580;2023-02-11T09:43:47;103065.47;;;7.61;100.00
60307;BME280;46155;52.364;6.580;2023-02-11T09:46:15;103072.88;;;7.65;100.00
60307;BME280;46155;52.364;6.580;2023-02-11T09:48:43;103073.63;;;7.64;100.00
60307;BME280;46155;52.364;6.580;2023-02-11T09:54:36;103064.94;;;7.72;100.00
60307;BME280;46155;52.364;6.580;2023-02-11T09:57:03;103074.97;;;7.76;100.00
60307;BME280;46155;52.364;6.580;2023-02-11T09:59:30;103079.78;;;7.80;100.00
60307;BME280;46155;52.364;6.580;2023-02-11T10:02:22;103083.56;;;7.91;100.00
60307;BME280;46155;52.364;6.580;2023-02-11T10:04:56;103090.03;;;7.95;100.00
60307;BME280;46155;52.364;6.580;2023-02-11T10:10:10;103088.59;;;8.05;100.00
60307;BME280;46155;52.364;6.580;2023-02-11T10:13:09;103074.13;;;8.09;100.00
60307;BME280;46155;52.364;6.580;2023-02-11T10:18:44;103103.50;;;8.22;100.00
60307;BME280;46155;52.364;6.580;2023-02-11T10:21:31;103103.13;;;8.19;100.00
60307;BME280;46155;52.364;6.580;2023-02-11T10:24:03;103112.75;;;8.27;100.00
60307;BME280;46155;52.364;6.580;2023-02-11T10:26:35;103116.03;;;8.34;100.00
60307;BME280;46155;52.364;6.580;2023-02-11T10:29:10;103124.22;;;8.37;100.00
60307;BME280;46155;52.364;6.580;2023-02-11T10:31:40;103120.56;;;8.43;100.00
60307;BME280;46155;52.364;6.580;2023-02-11T10:34:09;103124.44;;;8.47;100.00
60307;BME280;46155;52.364;6.580;2023-02-11T10:36:38;103128.19;;;8.49;100.00
60307;BME280;46155;52.364;6.580;2023-02-11T10:39:16;103125.88;;;8.52;100.00
60307;BME280;46155;52.364;6.580;2023-02-11T10:41:55;103129.03;;;8.66;100.00
60307;BME280;46155;52.364;6.580;2023-02-11T10:44:34;103129.41;;;8.77;100.00
60307;BME280;46155;52.364;6.580;2023-02-11T10:47:04;103129.13;;;8.83;100.00
60307;BME280;46155;52.364;6.580;2023-02-11T10:49:37;103131.47;;;8.89;100.00
60307;BME280;46155;52.364;6.580;2023-02-11T10:55:16;103125.88;;;8.86;100.00
60307;BME280;46155;52.364;6.580;2023-02-11T10:57:53;103122.50;;;8.87;100.00
60307;BME280;46155;52.364;6.580;2023-02-11T11:00:29;103122.34;;;8.85;100.00
60307;BME280;46155;52.364;6.580;2023-02-11T11:02:59;103117.41;;;8.88;100.00
60307;BME280;46155;52.364;6.580;2023-02-11T11:05:31;103121.75;;;8.88;100.00
60307;BME280;46155;52.364;6.580;2023-02-11T11:08:07;103129.13;;;8.83;100.00
60307;BME280;46155;52.364;6.580;2023-02-11T11:13:01;103129.16;;;8.92;100.00
60307;BME280;46155;52.364;6.580;2023-02-11T11:15:29;103126.41;;;8.99;100.00
60307;BME280;46155;52.364;6.580;2023-02-11T11:18:17;103117.81;;;9.09;100.00
60307;BME280;46155;52.364;6.580;2023-02-11T11:21:00;103122.09;;;9.08;100.00
60307;BME280;46155;52.364;6.580;2023-02-11T11:23:27;103118.72;;;9.09;100.00
60307;BME280;46155;52.364;6.580;2023-02-11T11:26:11;103122.16;;;9.17;100.00
60307;BME280;46155;52.364;6.580;2023-02-11T11:28:41;103122.03;;;9.24;100.00
60307;BME280;46155;52.364;6.580;2023-02-11T11:31:15;103140.53;;;9.35;100.00
60307;BME280;46155;52.364;6.580;2023-02-11T11:33:43;103134.84;;;9.30;100.00
60307;BME280;46155;52.364;6.580;2023-02-11T11:36:12;103129.91;;;9.33;100.00
60307;BME280;46155;52.364;6.580;2023-02-11T11:38:44;103134.50;;;9.27;100.00
60307;BME280;46155;52.364;6.580;2023-02-11T11:41:31;103131.84;;;9.18;100.00
60307;BME280;46155;52.364;6.580;2023-02-11T11:46:33;103129.53;;;9.21;100.00
60307;BME280;46155;52.364;6.580;2023-02-11T11:49:24;103118.16;;;9.21;100.00
60307;BME280;46155;52.364;6.580;2023-02-11T11:52:17;103118.91;;;9.20;100.00
60307;BME280;46155;52.364;6.580;2023-02-11T11:54:49;103123.09;;;9.26;100.00
60307;BME280;46155;52.364;6.580;2023-02-11T11:57:21;103127.56;;;9.27;100.00
60307;BME280;46155;52.364;6.580;2023-02-11T11:59:49;103127.88;;;9.30;100.00
60307;BME280;46155;52.364;6.580;2023-02-11T12:05:26;103121.91;;;9.40;100.00
60307;BME280;46155;52.364;6.580;2023-02-11T12:10:43;103125.16;;;9.55;100.00
60307;BME280;46155;52.364;6.580;2023-02-11T12:15:59;103131.34;;;9.73;100.00
60307;BME280;46155;52.364;6.580;2023-02-11T12:18:50;103140.94;;;9.73;100.00
60307;BME280;46155;52.364;6.580;2023-02-11T12:21:36;103134.72;;;9.72;100.00
60307;BME280;46155;52.364;6.580;2023-02-11T12:24:18;103147.38;;;9.76;100.00
60307;BME280;46155;52.364;6.580;2023-02-11T12:26:56;103138.59;;;10.28;100.00
60307;BME280;46155;52.364;6.580;2023-02-11T12:46:06;103126.91;;;9.81;100.00
60307;BME280;46155;52.364;6.580;2023-02-11T12:51:24;103140.47;;;9.86;100.00
60307;BME280;46155;52.364;6.580;2023-02-11T12:56:30;103135.06;;;9.84;100.00
60307;BME280;46155;52.364;6.580;2023-02-11T12:58:59;103132.44;;;9.84;100.00
60307;BME280;46155;52.364;6.580;2023-02-11T13:01:28;103129.66;;;9.91;100.00
60307;BME280;46155;52.364;6.580;2023-02-11T13:03:59;103121.34;;;9.95;100.00
60307;BME280;46155;52.364;6.580;2023-02-11T13:06:35;103112.84;;;9.98;100.00
60307;BME280;46155;52.364;6.580;2023-02-11T13:09:04;103092.94;;;9.91;100.00
60307;BME280;46155;52.364;6.580;2023-02-11T13:11:39;103113.16;;;9.92;100.00
60307;BME280;46155;52.364;6.580;2023-02-11T13:14:06;103116.09;;;9.95;100.00
60307;BME280;46155;52.364;6.580;2023-02-11T13:16:44;103120.72;;;10.07;100.00
60307;BME280;46155;52.364;6.580;2023-02-11T13:24:21;103119.75;;;10.06;100.00
60307;BME280;46155;52.364;6.580;2023-02-11T13:26:56;103118.84;;;10.14;100.00
60307;BME280;46155;52.364;6.580;2023-02-11T13:29:30;103110.50;;;10.45;99.03
60307;BME280;46155;52.364;6.580;2023-02-11T13:32:07;103110.03;;;10.23;98.86
60307;BME280;46155;52.364;6.580;2023-02-11T13:42:22;103115.47;;;10.07;99.97
60307;BME280;46155;52.364;6.580;2023-02-11T13:44:48;103118.50;;;10.29;97.55
60307;BME280;46155;52.364;6.580;2023-02-11T13:47:29;103112.34;;;10.20;98.66
60307;BME280;46155;52.364;6.580;2023-02-11T13:49:55;103118.38;;;10.19;99.04
60307;BME280;46155;52.364;6.580;2023-02-11T13:52:33;103119.78;;;10.15;99.03
60307;BME280;46155;52.364;6.580;2023-02-11T13:55:21;103125.03;;;10.15;99.42
60307;BME280;46155;52.364;6.580;2023-02-11T14:00:46;103118.09;;;10.07;99.83
60307;BME280;46155;52.364;6.580;2023-02-11T14:19:37;103125.94;;;10.24;100.00
60307;BME280;46155;52.364;6.580;2023-02-11T14:27:10;103117.44;;;10.27;98.55
60307;BME280;46155;52.364;6.580;2023-02-11T14:32:38;103127.19;;;10.28;98.46
60307;BME280;46155;52.364;6.580;2023-02-11T14:43:23;103139.81;;;10.23;98.86
60307;BME280;46155;52.364;6.580;2023-02-11T14:45:53;103129.50;;;10.07;99.75
60307;BME280;46155;52.364;6.580;2023-02-11T14:48:28;103141.41;;;10.12;99.74
60307;BME280;46155;52.364;6.580;2023-02-11T14:51:09;103145.53;;;10.10;100.00
60307;BME280;46155;52.364;6.580;2023-02-11T14:53:36;103144.78;;;10.03;100.00
60307;BME280;46155;52.364;6.580;2023-02-11T14:56:16;103140.75;;;9.97;100.00
60307;BME280;46155;52.364;6.580;2023-02-11T14:58:46;103146.47;;;9.93;100.00
60307;BME280;46155;52.364;6.580;2023-02-11T15:01:33;103152.66;;;9.94;100.00
60307;BME280;46155;52.364;6.580;2023-02-11T15:04:04;103146.16;;;9.90;100.00
60307;BME280;46155;52.364;6.580;2023-02-11T15:06:38;103153.13;;;9.90;100.00
60307;BME280;46155;52.364;6.580;2023-02-11T15:09:23;103145.72;;;9.94;100.00
60307;BME280;46155;52.364;6.580;2023-02-11T15:11:54;103150.34;;;9.97;100.00
60307;BME280;46155;52.364;6.580;2023-02-11T15:14:25;103154.66;;;9.96;100.00
60307;BME280;46155;52.364;6.580;2023-02-11T15:16:52;103138.59;;;9.85;100.00
60307;BME280;46155;52.364;6.580;2023-02-11T15:19:32;103162.81;;;9.91;100.00
60307;BME280;46155;52.364;6.580;2023-02-11T15:22:00;103154.03;;;9.90;100.00
60307;BME280;46155;52.364;6.580;2023-02-11T15:24:33;103154.34;;;9.93;100.00
60307;BME280;46155;52.364;6.580;2023-02-11T15:27:02;103149.09;;;9.85;100.00
60307;BME280;46155;52.364;6.580;2023-02-11T15:29:37;103161.75;;;9.97;99.03
60307;BME280;46155;52.364;6.580;2023-02-11T15:32:25;103162.97;;;9.83;99.45
60307;BME280;46155;52.364;6.580;2023-02-11T15:34:51;103165.75;;;9.85;99.33
60307;BME280;46155;52.364;6.580;2023-02-11T15:37:27;103165.16;;;9.79;100.00
60307;BME280;46155;52.364;6.580;2023-02-11T15:40:17;103165.44;;;9.82;99.91
60307;BME280;46155;52.364;6.580;2023-02-11T15:42:54;103169.78;;;9.81;100.00
60307;BME280;46155;52.364;6.580;2023-02-11T15:45:23;103167.63;;;9.69;100.00
60307;BME280;46155;52.364;6.580;2023-02-11T15:48:06;103163.88;;;9.67;100.00
60307;BME280;46155;52.364;6.580;2023-02-11T15:50:34;103163.56;;;9.63;100.00
60307;BME280;46155;52.364;6.580;2023-02-11T15:53:10;103162.66;;;9.63;100.00
60307;BME280;46155;52.364;6.580;2023-02-11T15:55:41;103161.41;;;9.59;100.00
60307;BME280;46155;52.364;6.580;2023-02-11T15:58:08;103162.00;;;9.57;100.00
60307;BME280;46155;52.364;6.580;2023-02-11T16:00:35;103175.13;;;9.57;100.00
60307;BME280;46155;52.364;6.580;2023-02-11T16:03:03;103172.69;;;9.58;100.00
60307;BME280;46155;52.364;6.580;2023-02-11T16:05:32;103174.50;;;9.51;100.00
60307;BME280;46155;52.364;6.580;2023-02-11T16:07:59;103170.31;;;9.44;100.00
60307;BME280;46155;52.364;6.580;2023-02-11T16:10:33;103166.03;;;9.44;100.00
60307;BME280;46155;52.364;6.580;2023-02-11T16:18:12;103169.69;;;9.29;100.00
60307;BME280;46155;52.364;6.580;2023-02-11T16:20:38;103152.81;;;9.18;100.00
60307;BME280;46155;52.364;6.580;2023-02-11T16:23:05;103169.66;;;9.20;100.00
60307;BME280;46155;52.364;6.580;2023-02-11T16:25:33;103186.13;;;9.19;100.00
60307;BME280;46155;52.364;6.580;2023-02-11T16:28:00;103185.06;;;9.17;100.00
60307;BME280;46155;52.364;6.580;2023-02-11T16:30:29;103183.34;;;9.18;100.00
60307;BME280;46155;52.364;6.580;2023-02-11T16:32:56;103190.31;;;9.17;100.00
60307;BME280;46155;52.364;6.580;2023-02-11T16:35:21;103186.38;;;9.05;100.00
60307;BME280;46155;52.364;6.580;2023-02-11T16:37:47;103204.44;;;9.10;100.00
60307;BME280;46155;52.364;6.580;2023-02-11T16:40:12;103200.56;;;9.07;100.00
60307;BME280;46155;52.364;6.580;2023-02-11T16:42:38;103200.72;;;9.08;100.00
60307;BME280;46155;52.364;6.580;2023-02-11T16:45:04;103205.66;;;9.05;100.00
60307;BME280;46155;52.364;6.580;2023-02-11T16:47:29;103214.88;;;9.02;100.00
60307;BME280;46155;52.364;6.580;2023-02-11T16:49:55;103215.50;;;8.99;100.00
60307;BME280;46155;52.364;6.580;2023-02-11T16:52:22;103217.78;;;8.96;100.00
60307;BME280;46155;52.364;6.580;2023-02-11T16:54:47;103222.88;;;8.94;100.00
60307;BME280;46155;52.364;6.580;2023-02-11T16:57:15;103219.13;;;8.92;100.00
60307;BME280;46155;52.364;6.580;2023-02-11T16:59:41;103223.91;;;8.88;100.00
60307;BME280;46155;52.364;6.580;2023-02-11T17:02:17;103229.31;;;8.89;100.00
60307;BME280;46155;52.364;6.580;2023-02-11T17:04:44;103218.50;;;8.86;100.00
60307;BME280;46155;52.364;6.580;2023-02-11T17:07:10;103234.22;;;8.86;100.00
60307;BME280;46155;52.364;6.580;2023-02-11T17:09:35;103217.81;;;8.80;100.00
60307;BME280;46155;52.364;6.580;2023-02-11T17:12:00;103232.47;;;8.78;100.00
60307;BME280;46155;52.364;6.580;2023-02-11T17:14:26;103236.78;;;8.77;100.00
60307;BME280;46155;52.364;6.580;2023-02-11T17:16:51;103238.13;;;8.74;100.00
60307;BME280;46155;52.364;6.580;2023-02-11T17:19:18;103255.72;;;8.75;100.00
60307;BME280;46155;52.364;6.580;2023-02-11T17:21:46;103245.25;;;8.75;100.00
60307;BME280;46155;52.364;6.580;2023-02-11T17:24:12;103250.47;;;8.75;100.00
60307;BME280;46155;52.364;6.580;2023-02-11T17:26:39;103237.66;;;8.69;100.00
60307;BME280;46155;52.364;6.580;2023-02-11T17:29:09;103245.25;;;8.75;100.00
60307;BME280;46155;52.364;6.580;2023-02-11T17:31:35;103247.69;;;8.73;100.00
60307;BME280;46155;52.364;6.580;2023-02-11T17:34:01;103252.94;;;8.73;100.00
60307;BME280;46155;52.364;6.580;2023-02-11T17:36:26;103253.53;;;8.71;100.00
60307;BME280;46155;52.364;6.580;2023-02-11T17:38:55;103254.88;;;8.67;100.00
60307;BME280;46155;52.364;6.580;2023-02-11T17:41:21;103264.00;;;8.71;100.00
60307;BME280;46155;52.364;6.580;2023-02-11T17:43:46;103268.28;;;8.70;100.00
60307;BME280;46155;52.364;6.580;2023-02-11T17:46:11;103259.75;;;8.80;100.00
60307;BME280;46155;52.364;6.580;2023-02-11T17:48:38;103266.41;;;8.85;100.00
60307;BME280;46155;52.364;6.580;2023-02-11T17:51:23;103266.56;;;8.87;100.00
60307;BME280;46155;52.364;6.580;2023-02-11T17:53:50;103269.03;;;8.85;100.00
60307;BME280;46155;52.364;6.580;2023-02-11T17:56:15;103266.84;;;8.81;100.00
60307;BME280;46155;52.364;6.580;2023-02-11T17:58:40;103266.03;;;8.73;100.00
60307;BME280;46155;52.364;6.580;2023-02-11T18:01:06;103267.69;;;8.73;100.00
60307;BME280;46155;52.364;6.580;2023-02-11T18:03:31;103269.25;;;8.71;100.00
60307;BME280;46155;52.364;6.580;2023-02-11T18:06:01;103269.84;;;8.68;100.00
60307;BME280;46155;52.364;6.580;2023-02-11T18:08:27;103263.94;;;8.62;100.00
60307;BME280;46155;52.364;6.580;2023-02-11T18:10:53;103278.72;;;8.61;100.00
60307;BME280;46155;52.364;6.580;2023-02-11T18:13:18;103276.88;;;8.60;100.00
60307;BME280;46155;52.364;6.580;2023-02-11T18:15:43;103275.94;;;8.60;100.00
60307;BME280;46155;52.364;6.580;2023-02-11T18:18:09;103277.13;;;8.55;100.00
60307;BME280;46155;52.364;6.580;2023-02-11T18:20:34;103268.94;;;8.52;100.00
60307;BME280;46155;52.364;6.580;2023-02-11T18:22:59;103267.53;;;8.47;100.00
60307;BME280;46155;52.364;6.580;2023-02-11T18:25:25;103264.75;;;8.45;100.00
60307;BME280;46155;52.364;6.580;2023-02-11T18:27:50;103276.44;;;8.49;100.00
60307;BME280;46155;52.364;6.580;2023-02-11T18:30:16;103277.44;;;8.42;100.00
60307;BME280;46155;52.364;6.580;2023-02-11T18:32:42;103277.25;;;8.40;100.00
60307;BME280;46155;52.364;6.580;2023-02-11T18:35:12;103289.75;;;8.43;100.00
60307;BME280;46155;52.364;6.580;2023-02-11T18:37:40;103289.75;;;8.43;100.00
60307;BME280;46155;52.364;6.580;2023-02-11T18:40:06;103293.28;;;8.51;100.00
60307;BME280;46155;52.364;6.580;2023-02-11T18:42:31;103291.91;;;8.54;100.00